createdAt,value
2018-09-04T00:00:02.121Z,99432.77
2018-09-04T00:02:32.505Z,99440.75
2018-09-04T00:05:02.699Z,99442.88
2018-09-04T00:07:33.960Z,99440.80
2018-09-04T00:10:05.654Z,99442.84
2018-09-04T00:12:37.303Z,99449.47
2018-09-04T00:15:07.943Z,99456.12
2018-09-04T00:17:39.789Z,99444.47
2018-09-04T00:20:11.233Z,99442.31
2018-09-04T00:22:41.425Z,99440.50
2018-09-04T00:25:13.314Z,99439.42
2018-09-04T00:27:49.009Z,99440.50
2018-09-04T00:30:21.293Z,99439.70
2018-09-04T00:32:52.401Z,99431.25
2018-09-04T00:35:25.705Z,99436.86
2018-09-04T00:37:55.635Z,99426.53
2018-09-04T00:40:27.196Z,99431.55
2018-09-04T00:42:59.912Z,99428.58
2018-09-04T00:45:33.392Z,99435.69
2018-09-04T00:48:05.783Z,99433.91
2018-09-04T00:50:38.479Z,99429.63
2018-09-04T00:53:09.962Z,99429.13
2018-09-04T00:55:43.420Z,99424.41
2018-09-04T00:58:16.086Z,99420.13
2018-09-04T01:00:48.335Z,99422.28
2018-09-04T01:03:20.912Z,99424.18
2018-09-04T01:05:52.934Z,99417.28
2018-09-04T01:08:26.099Z,99415.38
2018-09-04T01:10:58.267Z,99418.75
2018-09-04T01:13:31.486Z,99421.16
2018-09-04T01:16:02.170Z,99424.66
2018-09-04T01:18:34.559Z,99425.73
2018-09-04T01:21:05.195Z,99427.08
2018-09-04T01:23:37.114Z,99429.70
2018-09-04T01:26:08.175Z,99431.33
2018-09-04T01:28:38.242Z,99435.30
2018-09-04T01:31:09.907Z,99382.34
2018-09-04T01:33:43.763Z,99430.50
2018-09-04T01:36:14.482Z,99434.48
2018-09-04T01:38:45.644Z,99438.09
2018-09-04T01:41:18.165Z,99437.05
2018-09-04T01:43:50.130Z,99434.64
2018-09-04T01:46:22.423Z,99440.96
2018-09-04T01:48:55.780Z,99436.44
2018-09-04T01:51:27.530Z,99435.69
2018-09-04T01:53:57.869Z,99428.55
2018-09-04T01:56:28.625Z,99428.05
2018-09-04T01:59:00.211Z,99424.13
2018-09-04T02:01:32.414Z,99427.88
2018-09-04T02:04:04.889Z,99424.50
2018-09-04T02:06:36.662Z,99428.17
2018-09-04T02:09:10.683Z,99430.25
2018-09-04T02:11:42.919Z,99426.33
2018-09-04T02:14:14.415Z,99423.92
2018-09-04T02:16:45.768Z,99420.25
2018-09-04T02:19:18.199Z,99411.24
2018-09-04T02:21:52.877Z,99405.13
2018-09-04T02:24:25.306Z,99400.59
2018-09-04T02:26:57.478Z,99400.84
2018-09-04T02:29:29.000Z,99402.98
2018-09-04T02:31:59.458Z,99405.87
2018-09-04T02:34:31.128Z,99407.20
2018-09-04T02:37:02.454Z,99411.68
2018-09-04T02:39:33.824Z,99403.43
2018-09-04T02:42:06.562Z,99408.95
2018-09-04T02:44:40.711Z,99411.58
2018-09-04T02:47:14.029Z,99413.39
2018-09-04T02:49:45.347Z,99414.66
2018-09-04T02:52:18.233Z,99413.86
2018-09-04T02:54:49.810Z,99414.91
2018-09-04T02:57:21.006Z,99417.30
2018-09-04T02:59:51.088Z,99412.25
2018-09-04T03:02:21.687Z,99412.84
2018-09-04T03:04:52.807Z,99412.28
2018-09-04T03:07:27.534Z,99412.78
2018-09-04T03:10:00.421Z,99410.59
2018-09-04T03:12:31.551Z,99414.56
2018-09-04T03:15:03.156Z,99413.48
2018-09-04T03:17:33.890Z,99413.80
2018-09-04T03:20:04.056Z,99412.47
2018-09-04T03:22:34.202Z,99387.98
2018-09-04T03:25:04.518Z,99411.70
2018-09-04T03:27:35.545Z,99416.48
2018-09-04T03:30:10.059Z,99416.02
2018-09-04T03:32:43.546Z,99420.17
2018-09-04T03:35:14.599Z,99417.73
2018-09-04T03:37:44.742Z,99423.80
2018-09-04T03:40:15.068Z,99422.65
2018-09-04T03:42:45.013Z,99415.98
2018-09-04T03:45:15.030Z,99418.57
2018-09-04T03:47:45.209Z,99411.67
2018-09-04T03:50:15.596Z,99415.89
2018-09-04T03:52:46.655Z,99415.47
2018-09-04T03:55:17.839Z,99420.52
2018-09-04T03:57:48.016Z,99415.81
2018-09-04T04:00:18.849Z,99419.30
2018-09-04T04:02:48.904Z,99417.39
2018-09-04T04:05:18.931Z,99413.41
2018-09-04T04:07:51.426Z,99412.61
2018-09-04T04:10:23.528Z,99415.54
2018-09-04T04:12:54.833Z,99427.14
2018-09-04T04:15:25.320Z,99423.69
2018-09-04T04:17:56.111Z,99422.86
2018-09-04T04:20:26.559Z,99418.11
2018-09-04T04:22:57.320Z,99418.11
2018-09-04T04:25:27.264Z,99412.13
2018-09-04T04:27:57.277Z,99410.84
2018-09-04T04:30:27.569Z,99414.50
2018-09-04T04:32:58.278Z,99416.79
2018-09-04T04:35:28.667Z,99421.08
2018-09-04T04:37:58.423Z,99424.77
2018-09-04T04:40:29.987Z,99427.70
2018-09-04T04:43:01.109Z,99425.30
2018-09-04T04:45:33.378Z,99418.56
2018-09-04T04:48:03.992Z,99424.31
2018-09-04T04:50:34.263Z,99422.55
2018-09-04T04:53:04.281Z,99429.23
2018-09-04T04:55:35.615Z,99428.74
2018-09-04T04:58:06.018Z,99435.16
2018-09-04T05:00:35.765Z,99430.45
2018-09-04T05:03:06.312Z,99430.70
2018-09-04T05:05:37.288Z,99430.42
2018-09-04T05:08:07.572Z,99438.39
2018-09-04T05:10:43.134Z,99417.31
2018-09-04T05:13:23.321Z,99449.23
2018-09-04T05:16:01.120Z,99451.92
2018-09-04T05:18:34.328Z,99423.20
2018-09-04T05:21:04.731Z,99445.61
2018-09-04T05:23:39.159Z,99446.69
2018-09-04T05:26:09.747Z,99448.78
2018-09-04T05:28:40.992Z,99444.31
2018-09-04T05:31:11.626Z,99444.81
2018-09-04T05:33:44.354Z,99440.09
2018-09-04T05:36:16.097Z,99442.47
2018-09-04T05:38:45.998Z,99451.31
2018-09-04T05:41:21.603Z,99455.90
2018-09-04T05:43:58.087Z,99454.83
2018-09-04T05:46:38.102Z,99457.84
2018-09-04T05:49:08.906Z,99457.86
2018-09-04T05:51:39.067Z,99456.75
2018-09-04T05:54:13.450Z,99450.44
2018-09-04T05:56:43.972Z,99457.11
2018-09-04T05:59:14.452Z,99453.16
2018-09-04T06:01:45.223Z,99459.91
2018-09-04T06:04:15.381Z,99460.48
2018-09-04T06:06:47.356Z,99464.98
2018-09-04T06:09:17.421Z,99468.95
2018-09-04T06:11:49.537Z,99468.44
2018-09-04T06:14:19.354Z,99473.02
2018-09-04T06:16:49.323Z,99470.65
2018-09-04T06:19:21.733Z,99477.57
2018-09-04T06:21:53.530Z,99481.33
2018-09-04T06:24:24.462Z,99482.41
2018-09-04T06:26:54.866Z,99477.14
2018-09-04T06:29:25.093Z,99479.80
2018-09-04T06:31:55.934Z,99485.16
2018-09-04T06:34:26.772Z,99485.17
2018-09-04T06:36:58.365Z,99477.47
2018-09-04T06:39:30.166Z,99479.59
2018-09-04T06:42:00.449Z,99480.67
2018-09-04T06:44:31.176Z,99483.33
2018-09-04T06:47:02.717Z,99486.52
2018-09-04T06:49:33.909Z,99487.03
2018-09-04T06:52:04.437Z,99485.73
2018-09-04T06:54:36.032Z,99480.39
2018-09-04T06:57:06.090Z,99479.08
2018-09-04T07:02:07.519Z,99455.95
2018-09-04T07:04:37.392Z,99475.33
2018-09-04T07:07:07.366Z,99483.56
2018-09-04T07:09:37.356Z,99484.38
2018-09-04T07:12:07.212Z,99492.10
2018-09-04T07:14:37.326Z,99494.72
2018-09-04T07:17:07.879Z,99495.27
2018-09-04T07:19:38.540Z,99491.53
2018-09-04T07:22:09.374Z,99488.86
2018-09-04T07:24:39.657Z,99486.48
2018-09-04T07:27:09.723Z,99488.34
2018-09-04T07:29:40.473Z,99488.29
2018-09-04T07:32:11.004Z,99490.34
2018-09-04T07:34:41.455Z,99486.27
2018-09-04T07:37:11.295Z,99492.07
2018-09-04T07:39:41.564Z,99478.49
2018-09-04T07:42:11.706Z,99476.86
2018-09-04T07:44:41.755Z,99481.66
2018-09-04T07:47:13.228Z,99481.09
2018-09-04T07:49:43.040Z,99483.94
2018-09-04T07:52:13.023Z,99479.11
2018-09-04T07:54:43.543Z,99477.47
2018-09-04T07:57:13.861Z,99479.36
2018-09-04T07:59:43.651Z,99473.91
2018-09-04T08:02:14.268Z,99471.75
2018-09-04T08:04:44.059Z,99467.93
2018-09-04T08:07:14.527Z,99471.93
2018-09-04T08:09:44.914Z,99466.91
2018-09-04T08:12:14.876Z,99467.37
2018-09-04T08:14:44.858Z,99468.02
2018-09-04T08:17:15.318Z,99465.87
2018-09-04T08:19:45.810Z,99469.08
2018-09-04T08:22:15.776Z,99459.72
2018-09-04T08:24:46.412Z,99454.58
2018-09-04T08:27:17.304Z,99452.33
2018-09-04T08:29:47.447Z,99458.47
2018-09-04T08:32:18.612Z,99455.95
2018-09-04T08:34:48.619Z,99456.79
2018-09-04T08:37:21.322Z,99456.83
2018-09-04T08:39:53.307Z,99457.44
2018-09-04T08:42:24.628Z,99450.92
2018-09-04T08:44:58.280Z,99449.41
2018-09-04T08:47:30.189Z,99452.68
2018-09-04T08:50:03.447Z,99446.56
2018-09-04T08:52:34.232Z,99450.41
2018-09-04T08:55:07.157Z,99448.78
2018-09-04T08:57:38.264Z,99457.63
2018-09-04T09:00:11.416Z,99456.03
2018-09-04T09:02:41.544Z,99461.84
2018-09-04T09:05:13.231Z,99452.34
2018-09-04T09:07:43.259Z,99456.13
2018-09-04T09:10:13.236Z,99448.61
2018-09-04T09:12:44.860Z,99451.06
2018-09-04T09:15:14.861Z,99438.42
2018-09-04T09:17:45.238Z,99443.23
2018-09-04T09:20:16.297Z,99440.32
2018-09-04T09:22:46.581Z,99440.06
2018-09-04T09:25:17.029Z,99441.03
2018-09-04T09:27:48.024Z,99435.73
2018-09-04T09:30:19.341Z,99436.34
2018-09-04T09:32:50.115Z,99441.12
2018-09-04T09:35:20.241Z,99436.17
2018-09-04T09:37:50.999Z,99438.45
2018-09-04T09:40:21.366Z,99431.22
2018-09-04T09:42:52.620Z,99406.84
2018-09-04T09:45:23.460Z,99431.70
2018-09-04T09:47:54.180Z,99432.56
2018-09-04T09:50:24.192Z,99431.76
2018-09-04T09:52:54.572Z,99437.27
2018-09-04T09:55:26.102Z,99426.52
2018-09-04T09:57:56.153Z,99428.25
2018-09-04T10:00:31.723Z,99426.77
2018-09-04T10:03:06.483Z,99425.41
2018-09-04T10:05:36.499Z,99419.64
2018-09-04T10:08:06.916Z,99420.73
2018-09-04T10:10:39.418Z,99418.59
2018-09-04T10:13:09.500Z,99416.05
2018-09-04T10:15:40.064Z,99411.77
2018-09-04T10:18:10.895Z,99415.08
2018-09-04T10:20:42.743Z,99423.25
2018-09-04T10:23:14.731Z,99424.59
2018-09-04T10:25:45.987Z,99423.80
2018-09-04T10:28:18.285Z,99425.00
2018-09-04T10:30:49.515Z,99420.31
2018-09-04T10:33:19.507Z,99419.74
2018-09-04T10:35:49.599Z,99389.57
2018-09-04T10:38:25.118Z,99411.77
2018-09-04T10:41:05.054Z,99413.73
2018-09-04T10:43:36.513Z,99417.95
2018-09-04T10:46:17.191Z,99406.22
2018-09-04T10:48:47.975Z,99411.89
2018-09-04T10:51:19.819Z,99410.01
2018-09-04T10:53:50.649Z,99409.53
2018-09-04T10:56:23.001Z,99402.79
2018-09-04T10:58:53.868Z,99381.05
2018-09-04T11:01:25.930Z,99401.24
2018-09-04T11:03:58.014Z,99396.28
2018-09-04T11:06:28.436Z,99396.84
2018-09-04T11:09:00.509Z,99398.73
2018-09-04T11:11:32.701Z,99393.88
2018-09-04T11:14:04.473Z,99403.92
2018-09-04T11:16:35.086Z,99402.40
2018-09-04T11:19:05.155Z,99404.22
2018-09-04T11:21:35.520Z,99400.99
2018-09-04T11:33:14.698Z,99393.35
2018-09-04T11:35:47.045Z,99394.09
2018-09-04T11:38:19.776Z,99390.35
2018-09-04T11:40:54.536Z,99382.32
2018-09-04T11:43:27.208Z,99374.14
2018-09-04T11:46:06.656Z,99380.47
2018-09-04T11:48:40.448Z,99355.03
2018-09-04T11:51:12.857Z,99376.36
2018-09-04T11:53:43.871Z,99376.89
2018-09-04T11:56:18.958Z,99377.73
2018-09-04T11:58:49.334Z,99373.96
2018-09-04T12:01:21.849Z,99355.98
2018-09-04T12:03:53.408Z,99379.64
2018-09-04T12:06:23.563Z,99376.13
2018-09-04T12:08:54.900Z,99377.89
2018-09-04T12:11:26.018Z,99375.69
2018-09-04T12:13:56.309Z,99374.61
2018-09-04T12:16:28.554Z,99369.70
2018-09-04T12:19:02.081Z,99368.20
2018-09-04T12:21:32.306Z,99368.02
2018-09-04T12:24:02.128Z,99371.70
2018-09-04T12:26:32.533Z,99363.64
2018-09-04T12:29:02.952Z,99363.81
2018-09-04T12:31:32.902Z,99369.89
2018-09-04T12:34:03.256Z,99367.91
2018-09-04T12:36:34.693Z,99366.96
2018-09-04T12:39:05.930Z,99326.61
2018-09-04T12:41:36.598Z,99361.11
2018-09-04T12:44:07.256Z,99366.08
2018-09-04T12:46:37.656Z,99362.83
2018-09-04T12:49:07.859Z,99368.78
2018-09-04T12:51:37.637Z,99361.13
2018-09-04T12:54:08.011Z,99362.15
2018-09-04T12:56:40.136Z,99363.17
2018-09-04T12:59:10.131Z,99358.90
2018-09-04T13:01:40.738Z,99355.87
2018-09-04T13:04:11.712Z,99353.39
2018-09-04T13:06:41.927Z,99359.34
2018-09-04T13:09:12.454Z,99351.67
2018-09-04T13:11:42.912Z,99355.28
2018-09-04T13:14:16.227Z,99366.41
2018-09-04T13:16:46.417Z,99357.08
2018-09-04T13:19:19.579Z,99358.00
2018-09-04T13:21:50.299Z,99352.70
2018-09-04T13:24:21.545Z,99356.66
2018-09-04T13:26:51.676Z,99356.66
2018-09-04T13:29:23.665Z,99355.18
2018-09-04T13:31:55.593Z,99350.80
2018-09-04T13:34:26.119Z,99343.36
2018-09-04T13:36:57.620Z,99347.20
2018-09-04T13:39:28.903Z,99338.41
2018-09-04T13:42:02.099Z,99345.86
2018-09-04T13:47:13.957Z,99347.30
2018-09-04T13:49:47.652Z,99347.30
2018-09-04T13:52:21.587Z,99342.69
2018-09-04T13:54:57.241Z,99336.73
2018-09-04T13:57:35.470Z,99333.80
2018-09-04T14:00:09.113Z,99331.75
2018-09-04T14:02:44.636Z,99336.61
2018-09-04T14:05:17.744Z,99331.88
2018-09-04T14:07:48.287Z,99325.33
2018-09-04T14:10:20.021Z,99326.25
2018-09-04T14:12:50.380Z,99327.39
2018-09-04T14:16:24.386Z,99325.55
2018-09-04T14:18:56.934Z,99332.81
2018-09-04T14:21:29.184Z,99328.56
2018-09-04T14:24:03.805Z,99330.94
2018-09-04T14:26:34.958Z,99331.03
2018-09-04T14:29:10.505Z,99328.63
2018-09-04T14:31:43.863Z,99332.30
2018-09-04T14:34:17.136Z,99335.99
2018-09-04T14:36:48.133Z,99337.05
2018-09-04T14:39:33.445Z,99333.67
2018-09-04T14:42:14.066Z,99337.73
2018-09-04T14:44:55.682Z,99336.16
2018-09-04T14:50:12.311Z,99326.48
2018-09-04T14:52:43.952Z,99331.64
2018-09-04T14:55:16.649Z,99326.44
2018-09-04T14:57:51.109Z,99324.16
2018-09-04T15:00:30.692Z,99326.72
2018-09-04T15:03:13.721Z,99333.16
2018-09-04T15:05:54.584Z,99330.22
2018-09-04T15:08:25.764Z,99331.36
2018-09-04T15:10:59.112Z,99326.06
2018-09-04T15:13:33.094Z,99329.73
2018-09-04T15:16:04.685Z,99327.38
2018-09-04T15:18:38.357Z,99330.91
2018-09-04T15:21:09.594Z,99330.16
2018-09-04T15:23:42.549Z,99327.56
2018-09-04T15:26:17.222Z,99331.25
2018-09-04T15:28:48.047Z,99330.54
2018-09-04T15:31:19.317Z,99339.00
2018-09-04T15:33:49.796Z,99333.97
2018-09-04T15:36:20.962Z,99336.22
2018-09-04T15:38:51.113Z,99333.50
2018-09-04T15:41:22.438Z,99335.70
2018-09-04T15:43:53.527Z,99333.90
2018-09-04T15:46:24.801Z,99331.89
2018-09-04T15:49:02.791Z,99336.41
2018-09-04T15:51:38.007Z,99333.02
2018-09-04T15:54:11.889Z,99327.28
2018-09-04T15:56:46.206Z,99329.19
2018-09-04T15:59:18.191Z,99331.33
2018-09-04T16:01:49.622Z,99331.34
2018-09-04T16:04:21.642Z,99335.69
2018-09-04T16:06:53.017Z,99335.23
2018-09-04T16:09:28.489Z,99336.81
2018-09-04T16:12:01.385Z,99334.12
2018-09-04T16:14:32.813Z,99329.61
2018-09-04T16:17:05.011Z,99331.64
2018-09-04T16:19:39.575Z,99334.14
2018-09-04T16:22:12.113Z,99337.54
2018-09-04T16:24:44.841Z,99326.81
2018-09-04T16:27:20.880Z,99313.22
2018-09-04T16:29:52.089Z,99343.81
2018-09-04T16:32:25.436Z,99338.73
2018-09-04T16:34:56.804Z,99339.45
2018-09-04T16:37:31.746Z,99342.84
2018-09-04T16:40:05.413Z,99338.17
2018-09-04T16:42:36.073Z,99340.27
2018-09-04T16:45:12.104Z,99339.71
2018-09-04T16:47:42.763Z,99336.64
2018-09-04T16:50:14.637Z,99339.75
2018-09-04T16:52:45.331Z,99345.27
2018-09-04T16:55:17.659Z,99339.38
2018-09-04T16:57:49.085Z,99336.53
2018-09-04T17:00:23.264Z,99343.16
2018-09-04T17:02:55.913Z,99342.56
2018-09-04T17:05:28.682Z,99348.27
2018-09-04T17:08:00.994Z,99347.66
2018-09-04T17:10:32.000Z,99347.65
2018-09-04T17:13:05.620Z,99354.46
2018-09-04T17:15:37.718Z,99351.81
2018-09-04T17:18:09.797Z,99349.55
2018-09-04T17:20:40.747Z,99348.56
2018-09-04T17:23:10.660Z,99356.25
2018-09-04T17:25:40.473Z,99365.14
2018-09-04T17:28:13.786Z,99367.81
2018-09-04T17:30:44.026Z,99367.66
2018-09-04T17:33:14.973Z,99373.32
2018-09-04T17:35:45.754Z,99371.66
2018-09-04T17:38:17.384Z,99373.89
2018-09-04T17:40:48.554Z,99378.03
2018-09-04T17:43:20.084Z,99386.34
2018-09-04T17:45:50.433Z,99375.13
2018-09-04T17:48:21.174Z,99388.05
2018-09-04T17:50:53.238Z,99387.88
2018-09-04T17:53:23.699Z,99392.64
2018-09-04T17:55:54.048Z,99384.41
2018-09-04T17:59:26.330Z,99388.65
2018-09-04T18:01:56.574Z,99402.15
2018-09-04T18:04:28.183Z,99404.89
2018-09-04T18:06:59.433Z,99404.53
2018-09-04T18:09:30.283Z,99377.95
2018-09-04T18:12:00.651Z,99411.30
2018-09-04T18:14:31.616Z,99411.07
2018-09-04T18:17:03.736Z,99416.09
2018-09-04T18:19:34.788Z,99415.55
2018-09-04T18:22:05.369Z,99417.42
2018-09-04T18:24:36.920Z,99421.83
2018-09-04T18:27:09.971Z,99428.64
2018-09-04T18:29:40.730Z,99436.95
2018-09-04T18:32:12.211Z,99434.02
2018-09-04T18:34:42.388Z,99433.66
2018-09-04T18:37:13.729Z,99438.30
2018-09-04T18:39:44.259Z,99442.39
2018-09-04T18:42:14.261Z,99415.28
2018-09-04T18:44:44.590Z,99445.34
2018-09-04T18:47:14.880Z,99451.84
2018-09-04T18:49:46.106Z,99457.34
2018-09-04T18:52:18.302Z,99459.85
2018-09-04T18:54:48.626Z,99461.36
2018-09-04T18:57:21.152Z,99471.69
2018-09-04T18:59:51.458Z,99471.17
2018-09-04T19:02:21.905Z,99478.48
2018-09-04T19:04:52.198Z,99469.97
2018-09-04T19:07:24.319Z,99472.23
2018-09-04T19:09:55.100Z,99479.19
2018-09-04T19:12:27.455Z,99475.52
2018-09-04T19:14:57.473Z,99474.84
2018-09-04T19:17:30.141Z,99480.23
2018-09-04T19:20:03.109Z,99483.56
2018-09-04T19:22:32.957Z,99484.42
2018-09-04T19:25:04.304Z,99489.21
2018-09-04T19:27:34.844Z,99485.28
2018-09-04T19:30:05.641Z,99484.28
2018-09-04T19:32:36.025Z,99481.67
2018-09-04T19:35:10.270Z,99487.55
2018-09-04T19:37:43.087Z,99489.77
2018-09-04T19:40:14.098Z,99489.82
2018-09-04T19:42:45.015Z,99496.80
2018-09-04T19:45:16.606Z,99497.63
2018-09-04T19:47:46.615Z,99497.37
2018-09-04T19:50:16.856Z,99497.94
2018-09-04T19:52:48.153Z,99495.84
2018-09-04T19:55:18.338Z,99497.22
2018-09-04T19:57:48.745Z,99503.08
2018-09-04T20:00:19.924Z,99499.36
2018-09-04T20:02:50.545Z,99505.82
2018-09-04T20:05:21.398Z,99503.16
2018-09-04T20:07:54.646Z,99503.95
2018-09-04T20:10:26.176Z,99508.22
2018-09-04T20:12:56.464Z,99507.16
2018-09-04T20:15:27.659Z,99509.02
2018-09-04T20:18:00.809Z,99508.22
2018-09-04T20:20:32.603Z,99511.65
2018-09-04T20:23:05.964Z,99512.71
2018-09-04T20:25:36.815Z,99511.88
2018-09-04T20:28:08.352Z,99518.53
2018-09-04T20:30:38.412Z,99517.17
2018-09-04T20:33:09.046Z,99517.93
2018-09-04T20:35:39.784Z,99519.26
2018-09-04T20:38:12.884Z,99524.06
2018-09-04T20:40:47.477Z,99520.37
2018-09-04T20:43:19.153Z,99524.36
2018-09-04T20:45:50.364Z,99523.33
2018-09-04T20:48:22.309Z,99522.80
2018-09-04T20:50:53.940Z,99522.84
2018-09-04T20:53:24.857Z,99530.59
2018-09-04T20:55:56.111Z,99533.05
2018-09-04T20:58:38.042Z,99531.72
2018-09-04T21:01:19.226Z,99536.80
2018-09-04T21:04:00.342Z,99535.23
2018-09-04T21:06:42.639Z,99539.79
2018-09-04T21:09:23.679Z,99537.14
2018-09-04T21:11:54.951Z,99545.95
2018-09-04T21:14:25.835Z,99539.83
2018-09-04T21:16:56.363Z,99537.18
2018-09-04T21:19:26.824Z,99539.88
2018-09-04T21:21:57.568Z,99541.21
2018-09-04T21:24:28.871Z,99544.17
2018-09-04T21:27:00.600Z,99549.48
2018-09-04T21:29:31.988Z,99549.49
2018-09-04T21:32:02.566Z,99549.77
2018-09-04T21:34:33.752Z,99552.72
2018-09-04T21:37:04.076Z,99551.13
2018-09-04T21:39:35.107Z,99553.47
2018-09-04T21:42:07.940Z,99551.63
2018-09-04T21:44:38.218Z,99548.44
2018-09-04T21:47:10.304Z,99549.78
2018-09-04T21:49:40.284Z,99558.27
2018-09-04T21:52:10.318Z,99560.13
2018-09-04T21:54:40.277Z,99555.08
2018-09-04T21:57:11.789Z,99557.74
2018-09-04T21:59:41.858Z,99557.21
2018-09-04T22:02:13.120Z,99556.39
2018-09-04T22:04:44.049Z,99561.45
2018-09-04T22:07:14.252Z,99556.95
2018-09-04T22:09:45.108Z,99565.17
2018-09-04T22:12:15.540Z,99567.30
2018-09-04T22:14:45.390Z,99563.59
2018-09-04T22:17:17.285Z,99562.78
2018-09-04T22:19:47.584Z,99563.58
2018-09-04T22:22:17.942Z,99560.11
2018-09-04T22:24:48.248Z,99562.23
2018-09-04T22:27:19.334Z,99568.34
2018-09-04T22:29:49.763Z,99573.36
2018-09-04T22:32:19.988Z,99576.29
2018-09-04T22:34:50.046Z,99581.32
2018-09-04T22:37:20.699Z,99577.30
2018-09-04T22:39:50.962Z,99580.26
2018-09-04T22:42:21.543Z,99580.50
2018-09-04T22:44:52.957Z,99578.66
2018-09-04T22:47:23.803Z,99577.84
2018-09-04T22:49:59.344Z,99587.34
2018-09-04T22:52:32.372Z,99579.89
2018-09-04T22:55:05.336Z,99580.41
2018-09-04T22:57:36.783Z,99580.67
2018-09-04T23:02:36.435Z,99586.50
2018-09-04T23:05:06.791Z,99592.61
2018-09-04T23:07:37.921Z,99589.93
2018-09-04T23:10:08.160Z,99588.86
2018-09-04T23:12:38.994Z,99587.23
2018-09-04T23:15:09.737Z,99585.92
2018-09-04T23:17:40.035Z,99592.80
2018-09-04T23:20:11.155Z,99593.88
2018-09-04T23:22:41.552Z,99591.48
2018-09-04T23:25:11.398Z,99592.53
2018-09-04T23:27:41.713Z,99593.59
2018-09-04T23:30:11.944Z,99592.16
2018-09-04T23:32:42.362Z,99595.05
2018-09-04T23:35:13.411Z,99586.51
2018-09-04T23:37:43.192Z,99598.20
2018-09-04T23:40:14.409Z,99596.87
2018-09-04T23:42:44.876Z,99600.79
2018-09-04T23:45:15.995Z,99598.61
2018-09-04T23:47:46.181Z,99598.11
2018-09-04T23:50:16.461Z,99597.83
2018-09-04T23:52:46.525Z,99598.11
2018-09-04T23:55:16.316Z,99590.41
2018-09-04T23:57:46.515Z,99591.97
